Time;durP1;ratioP1;P1;durP2;ratioP2;P2;SDS_P1;SDS_P2;PMS_P1;PMS_P2;Temp;Humidity;BMP_temperature;BMP_pressure;BME280_temperature;BME280_humidity;BME280_pressure;Samples;Min_cycle;Max_cycle;Signal;HPM_P1;HPM_P2
2023/04/22 00:02:15;;;;;;;;;30.75;28.25;;;;;-147.17;100.00;44081.13;5020757;28;51159;-51
2023/04/22 00:04:47;;;;;;;;;24.75;24.00;;;;;-147.17;100.00;44088.97;5042388;28;51143;-49
2023/04/22 00:07:14;;;;;;;;;28.25;25.25;;;;;-147.17;100.00;44004.47;5036262;28;51278;-51
2023/04/22 00:09:39;;;;;;;;;26.50;25.50;;;;;-147.17;100.00;43570.13;5033787;28;51966;-49
2023/04/22 00:12:05;;;;;;;;;31.00;30.00;;;;;-147.17;100.00;43188.91;5033422;28;52072;-51
2023/04/22 00:14:30;;;;;;;;;29.75;27.50;;;;;-147.17;100.00;42862.72;5016221;28;51399;-50
2023/04/22 00:16:56;;;;;;;;;33.25;31.25;;;;;-147.17;100.00;42742.88;5033123;28;52287;-51
2023/04/22 00:19:22;;;;;;;;;26.50;24.00;;;;;-147.17;100.00;42570.00;5033674;28;52915;-51
2023/04/22 00:21:47;;;;;;;;;31.25;29.25;;;;;-147.17;100.00;42475.69;5033345;28;51105;-50
2023/04/22 00:24:13;;;;;;;;;29.00;28.00;;;;;-147.17;100.00;42247.78;5033543;28;51361;-51
2023/04/22 00:26:38;;;;;;;;;24.75;24.50;;;;;-147.17;100.00;41878.47;5036219;28;51064;-50
2023/04/22 00:29:03;;;;;;;;;24.50;22.00;;;;;-147.17;100.00;41742.94;5032506;28;52033;-50
2023/04/22 00:31:29;;;;;;;;;30.50;27.50;;;;;-147.17;100.00;41707.59;5036137;28;51235;-51
2023/04/22 00:33:55;;;;;;;;;27.00;27.00;;;;;-147.17;100.00;41458.13;5043102;28;51164;-50
2023/04/22 00:36:20;;;;;;;;;30.25;27.25;;;;;-147.17;100.00;41153.72;5054711;28;50980;-48
2023/04/22 00:38:49;;;;;;;;;31.50;31.25;;;;;-147.17;100.00;41098.72;5040243;28;51136;-49
2023/04/22 00:41:15;;;;;;;;;28.25;28.25;;;;;-147.17;100.00;40984.81;5048054;28;51166;-51
2023/04/22 00:43:41;;;;;;;;;20.00;19.75;;;;;-147.17;100.00;40690.25;5033209;28;51309;-51
2023/04/22 00:46:07;;;;;;;;;27.75;26.50;;;;;-147.17;100.00;40525.28;5033465;28;51208;-50
2023/04/22 00:48:33;;;;;;;;;26.75;23.25;;;;;-147.17;100.00;40429.06;5037410;28;52767;-53
2023/04/22 00:50:58;;;;;;;;;24.00;23.00;;;;;-147.17;100.00;40277.88;5052288;28;51017;-50
2023/04/22 00:53:23;;;;;;;;;18.25;18.00;;;;;-147.17;100.00;40611.69;5054774;28;51002;-53
2023/04/22 00:55:49;;;;;;;;;22.00;21.00;;;;;-147.17;100.00;41026.06;5037163;28;51901;-52
2023/04/22 00:58:17;;;;;;;;;21.50;21.50;;;;;-147.17;100.00;40827.72;5041610;28;52004;-53
2023/04/22 01:00:43;;;;;;;;;25.25;24.50;;;;;-147.17;100.00;40984.81;5038914;28;51073;-50
2023/04/22 01:03:08;;;;;;;;;25.00;22.75;;;;;-147.17;100.00;41169.41;5033126;28;51009;-51
2023/04/22 01:05:34;;;;;;;;;27.25;25.00;;;;;-147.17;100.00;40647.03;5027044;28;51293;-53
2023/04/22 01:08:00;;;;;;;;;24.25;23.00;;;;;-147.17;100.00;39979.44;5043315;28;51994;-50
2023/04/22 01:10:26;;;;;;;;;27.00;25.75;;;;;-147.17;100.00;39048.91;5034199;28;51420;-52
2023/04/22 01:12:51;;;;;;;;;29.00;27.75;;;;;-147.17;100.00;38542.50;5052738;28;50990;-50
2023/04/22 01:15:17;;;;;;;;;29.00;26.25;;;;;-147.17;100.00;38026.34;5050262;28;51266;-52
2023/04/22 01:17:43;;;;;;;;;30.75;27.25;;;;;-147.17;100.00;37514.19;5048614;28;51323;-51
2023/04/22 01:20:09;;;;;;;;;29.75;27.75;;;;;-147.17;100.00;37184.56;5032180;28;50878;-50
2023/04/22 01:22:39;;;;;;;;;29.00;27.25;;;;;-147.17;100.00;36927.56;5023912;28;50994;-50
2023/04/22 01:25:05;;;;;;;;;26.75;25.50;;;;;-147.17;100.00;36588.16;5048536;28;51122;-50
2023/04/22 01:27:31;;;;;;;;;25.00;24.00;;;;;-147.17;100.00;36401.81;5039804;28;52925;-51
2023/04/22 01:29:56;;;;;;;;;26.00;25.25;;;;;-147.17;100.00;36164.47;5053302;28;51312;-52
2023/04/22 01:32:22;;;;;;;;;24.75;22.75;;;;;-147.17;100.00;36333.16;5053145;28;50937;-49
2023/04/22 01:34:47;;;;;;;;;26.00;24.25;;;;;-147.17;100.00;36133.09;5033562;28;51176;-50
2023/04/22 01:37:13;;;;;;;;;23.50;21.50;;;;;-147.17;100.00;35605.47;5049680;28;51678;-52
2023/04/22 01:39:38;;;;;;;;;27.25;26.75;;;;;-147.17;100.00;35391.72;5047936;28;51101;-49
2023/04/22 01:42:04;;;;;;;;;25.25;21.50;;;;;-147.17;100.00;35183.84;5047707;28;50913;-49
2023/04/22 01:44:29;;;;;;;;;25.50;24.25;;;;;-147.17;100.00;35097.56;5043686;28;51023;-50
2023/04/22 01:46:54;;;;;;;;;30.75;27.50;;;;;-147.17;100.00;34877.94;5050878;28;51795;-52
2023/04/22 01:49:20;;;;;;;;;27.25;25.75;;;;;-147.17;100.00;34409.34;5044271;28;50917;-51
2023/04/22 01:51:45;;;;;;;;;25.00;25.00;;;;;-147.17;100.00;34242.69;5052909;28;50981;-50
2023/04/22 01:54:11;;;;;;;;;24.00;21.75;;;;;-147.17;100.00;33925.09;5049783;28;51445;-51
2023/04/22 01:56:37;;;;;;;;;26.75;23.50;;;;;-147.17;100.00;34128.97;5040010;28;51137;-53
2023/04/22 01:59:03;;;;;;;;;21.25;21.25;;;;;-147.17;100.00;33662.41;5044168;28;51341;-51
2023/04/22 02:01:29;;;;;;;;;27.75;27.75;;;;;-147.17;100.00;33501.69;5043541;28;51301;-49
2023/04/22 02:03:54;;;;;;;;;29.25;27.50;;;;;-147.17;100.00;32978.34;5042674;28;51074;-51
2023/04/22 02:06:19;;;;;;;;;25.25;24.75;;;;;-147.17;100.00;32502.13;5045126;28;51163;-52
2023/04/22 02:08:45;;;;;;;;;28.25;26.75;;;;;-147.17;100.00;32459.03;5036099;28;51178;-50
2023/04/22 02:11:10;;;;;;;;;31.00;30.00;;;;;-147.17;100.00;31259.91;5052728;28;51448;-49
2023/04/22 02:13:37;;;;;;;;;24.00;24.00;;;;;-147.17;100.00;30296.19;5036200;28;51108;-49
2023/04/22 02:16:04;;;;;;;;;26.50;24.50;;;;;-147.17;100.00;29740.00;5031134;28;50969;-50
2023/04/22 02:18:29;;;;;;;;;23.50;23.00;;;;;-147.17;100.00;29471.72;5032951;28;51151;-51
2023/04/22 02:20:55;;;;;;;;;24.25;22.75;;;;;-147.17;100.00;27429.94;5047300;28;51183;-51
2023/04/22 02:23:20;;;;;;;;;22.50;21.75;;;;;-147.17;100.00;26678.47;5053377;28;51311;-50
2023/04/22 02:25:49;;;;;;;;;25.00;24.50;;;;;-147.17;100.00;25426.38;5032840;28;51341;-52
2023/04/22 02:28:15;;;;;;;;;30.25;25.50;;;;;-147.17;100.00;23423.81;5032333;28;51171;-50
2023/04/22 02:30:40;;;;;;;;;25.25;22.75;;;;;-147.17;100.00;20171.88;5031568;28;51299;-50
2023/04/22 02:33:06;;;;;;;;;28.25;26.50;;;;;-147.17;100.00;19671.84;5033052;28;51377;-51
2023/04/22 02:35:31;;;;;;;;;24.50;23.50;;;;;-147.17;100.00;18172.06;5024804;28;51095;-50
2023/04/22 02:37:56;;;;;;;;;28.50;27.00;;;;;-147.17;100.00;13676.16;5033254;28;51057;-51
2023/04/22 02:40:22;;;;;;;;;21.25;21.00;;;;;-147.17;100.00;13176.94;5048124;28;50929;-51
2023/04/22 02:42:47;;;;;;;;;28.75;26.75;;;;;-147.17;100.00;12677.78;5051313;28;50949;-51
2023/04/22 02:45:13;;;;;;;;;28.25;26.75;;;;;-147.17;100.00;12178.69;5039999;28;52244;-52
2023/04/22 02:47:38;;;;;;;;;28.00;24.50;;;;;-147.17;100.00;10432.38;5050269;28;51123;-51
2023/04/22 02:50:05;;;;;;;;;27.25;27.00;;;;;-147.17;100.00;8936.16;5051795;28;51112;-51
2023/04/22 02:52:32;;;;;;;;;27.50;26.00;;;;;-147.17;100.00;4949.06;5030859;28;50963;-50
2023/04/22 02:54:57;;;;;;;;;27.50;27.00;;;;;-147.17;100.00;3703.94;5036204;28;51176;-51
2023/04/22 02:57:23;;;;;;;;;24.00;21.75;;;;;-147.17;100.00;3206.00;5052418;28;51025;-51
2023/04/22 02:59:48;;;;;;;;;27.50;26.75;;;;;-147.17;100.00;2708.13;5051481;28;51226;-50
2023/04/22 03:02:13;;;;;;;;;25.75;25.00;;;;;-147.17;100.00;468.50;5050373;28;51353;-50
2023/04/22 03:04:39;;;;;;;;;27.25;24.00;;;;;-147.17;100.00;717.28;5048968;28;51007;-51
2023/04/22 03:07:05;;;;;;;;;27.00;26.25;;;;;-147.17;100.00;-526.47;5037525;28;51222;-52
2023/04/22 03:09:30;;;;;;;;;27.50;26.75;;;;;-147.17;100.00;-1023.88;5040204;28;51294;-51
2023/04/22 03:11:55;;;;;;;;;27.75;25.00;;;;;-147.17;100.00;-2764.22;5038929;28;51122;-52
2023/04/22 03:14:21;;;;;;;;;25.25;25.25;;;;;-147.17;100.00;-2267.06;5032729;28;51128;-50
2023/04/22 03:16:46;;;;;;;;;31.75;30.50;;;;;-147.17;100.00;-2515.66;5050167;28;51012;-49
2023/04/22 03:19:11;;;;;;;;;23.75;20.25;;;;;-147.17;100.00;-8477.03;5044125;28;50946;-49
2023/04/22 03:21:37;;;;;;;;;30.25;29.00;;;;;-147.17;100.00;-6739.25;5039364;28;51048;-50
2023/04/22 03:24:02;;;;;;;;;32.25;28.50;;;;;-147.17;100.00;-6242.59;5046446;28;51985;-51
2023/04/22 03:26:27;;;;;;;;;26.25;25.75;;;;;-147.17;100.00;-6987.56;5050446;28;50992;-49
2023/04/22 03:28:53;;;;;;;;;25.25;22.75;;;;;-147.17;100.00;-7235.84;5049429;28;51182;-49
2023/04/22 03:31:18;;;;;;;;;28.50;26.50;;;;;-147.17;100.00;-7980.59;5051475;28;51067;-50
2023/04/22 03:33:43;;;;;;;;;32.00;30.50;;;;;-147.17;100.00;-8228.81;5038170;28;56524;-51
2023/04/22 03:36:09;;;;;;;;;30.50;28.25;;;;;-147.17;100.00;-8973.38;5031693;28;50878;-53
2023/04/22 03:38:34;;;;;;;;;31.25;29.00;;;;;-147.17;100.00;-10462.09;5036389;28;52006;-51
2023/04/22 03:40:59;;;;;;;;;28.50;28.00;;;;;-147.17;100.00;-10462.09;5054763;28;51257;-52
2023/04/22 03:43:24;;;;;;;;;28.25;26.75;;;;;-147.17;100.00;-12198.19;5051267;28;51166;-53
2023/04/22 03:45:50;;;;;;;;;26.75;26.00;;;;;-147.17;100.00;-14181.31;5043372;28;50948;-53
2023/04/22 03:48:16;;;;;;;;;32.50;29.75;;;;;-147.17;100.00;-12941.97;5038646;28;51229;-51
2023/04/22 03:50:41;;;;;;;;;29.25;28.25;;;;;-147.17;100.00;-13189.88;5025804;28;51689;-52
2023/04/22 03:53:07;;;;;;;;;24.75;22.00;;;;;-147.17;100.00;-14924.75;5050899;28;51350;-53
2023/04/22 03:55:33;;;;;;;;;30.75;28.50;;;;;-147.17;100.00;-15172.50;5051401;28;51167;-53
2023/04/22 03:57:58;;;;;;;;;31.75;31.25;;;;;-147.17;100.00;-14924.75;5052888;28;51111;-51
2023/04/22 04:00:23;;;;;;;;;32.50;31.50;;;;;-147.17;100.00;-14181.31;5049745;28;50978;-50
2023/04/22 04:02:49;;;;;;;;;32.50;28.75;;;;;-147.17;100.00;-13437.75;5034980;28;52761;-51
2023/04/22 04:05:14;;;;;;;;;26.25;25.50;;;;;-147.17;100.00;-13437.75;5045618;28;51129;-53
2023/04/22 04:07:40;;;;;;;;;31.75;27.50;;;;;-147.17;100.00;-13933.50;5047996;28;51214;-50
2023/04/22 04:10:06;;;;;;;;;27.50;26.50;;;;;-147.17;100.00;-15172.50;5049006;28;51120;-51
2023/04/22 04:12:31;;;;;;;;;28.25;24.50;;;;;-147.17;100.00;-15172.50;5046093;28;52717;-51
2023/04/22 04:14:56;;;;;;;;;35.75;32.75;;;;;-147.17;100.00;-15420.25;5054881;28;51173;-50
2023/04/22 04:17:24;;;;;;;;;31.00;26.75;;;;;-147.17;100.00;-15668.00;5054672;28;51038;-51
2023/04/22 04:19:50;;;;;;;;;38.25;34.75;;;;;-147.17;100.00;-15420.25;5049689;28;51241;-53
2023/04/22 04:22:17;;;;;;;;;33.50;32.75;;;;;-147.17;100.00;-15420.25;5040883;28;52105;-52
2023/04/22 04:24:42;;;;;;;;;34.00;30.50;;;;;-147.17;100.00;-15917.19;5030313;28;51162;-52
2023/04/22 04:27:08;;;;;;;;;29.50;28.50;;;;;-147.17;100.00;-15668.00;5019596;28;51080;-50
2023/04/22 04:29:33;;;;;;;;;31.00;29.75;;;;;-147.17;100.00;-15915.72;5054226;28;51044;-50
2023/04/22 04:31:59;;;;;;;;;32.25;31.00;;;;;-147.17;100.00;-15917.19;5053698;28;51952;-53
2023/04/22 04:34:24;;;;;;;;;35.50;33.00;;;;;-147.17;100.00;-15917.19;5051911;28;51009;-51
2023/04/22 04:36:49;;;;;;;;;29.25;26.75;;;;;-147.17;100.00;-15917.19;5047969;28;51218;-52
2023/04/22 04:39:18;;;;;;;;;29.50;28.75;;;;;-147.17;100.00;-15917.19;5029732;28;51234;-51
2023/04/22 04:41:43;;;;;;;;;32.00;31.00;;;;;-147.17;100.00;-15917.19;5052497;28;51938;-52
2023/04/22 04:44:10;;;;;;;;;29.50;26.50;;;;;-147.17;100.00;-15917.19;5038464;28;51171;-51
2023/04/22 04:46:36;;;;;;;;;37.25;34.25;;;;;-147.17;100.00;-15917.19;5036573;28;50942;-50
2023/04/22 04:49:03;;;;;;;;;32.75;32.00;;;;;-147.17;100.00;-15917.19;5045319;28;51252;-50
2023/04/22 04:51:28;;;;;;;;;35.50;33.25;;;;;-147.17;100.00;-15917.19;5033238;28;50884;-51
2023/04/22 04:53:54;;;;;;;;;28.75;27.75;;;;;-147.17;100.00;-15917.19;5045546;28;51051;-51
2023/04/22 04:56:19;;;;;;;;;32.50;28.25;;;;;-147.17;100.00;-15917.19;5038227;28;51080;-53
2023/04/22 04:58:44;;;;;;;;;35.25;32.75;;;;;-147.17;100.00;-15917.19;5048800;28;51069;-54
2023/04/22 05:01:10;;;;;;;;;32.25;31.00;;;;;-147.17;100.00;-15917.19;5032715;28;51222;-54
2023/04/22 05:03:35;;;;;;;;;34.50;33.50;;;;;-147.17;100.00;-15917.19;5042854;28;51116;-52
2023/04/22 05:06:02;;;;;;;;;37.75;34.25;;;;;-147.17;100.00;-15917.19;5037364;28;51131;-51
2023/04/22 05:08:28;;;;;;;;;30.25;29.00;;;;;-147.17;100.00;-15917.19;5053561;28;50956;-52
2023/04/22 05:10:53;;;;;;;;;31.00;29.00;;;;;-147.17;100.00;-15917.19;5033484;28;50940;-51
2023/04/22 05:13:18;;;;;;;;;40.00;35.00;;;;;-147.17;100.00;-15917.19;5040119;28;51140;-51
2023/04/22 05:15:44;;;;;;;;;31.25;31.00;;;;;-147.17;100.00;-15917.19;5041238;28;50950;-54
2023/04/22 05:18:09;;;;;;;;;39.00;34.50;;;;;-147.17;100.00;-15917.19;5050264;28;51223;-49
2023/04/22 05:20:35;;;;;;;;;38.00;35.50;;;;;-147.17;100.00;-15917.19;5039391;28;52920;-50
2023/04/22 05:23:00;;;;;;;;;31.25;29.50;;;;;-147.17;100.00;-15917.19;5043878;28;53849;-51
2023/04/22 05:25:25;;;;;;;;;33.00;29.50;;;;;-147.17;100.00;-15917.19;5052356;28;51763;-52
2023/04/22 05:27:51;;;;;;;;;32.00;30.50;;;;;-147.17;100.00;-15917.19;5044368;28;51345;-53
2023/04/22 05:30:16;;;;;;;;;35.50;33.00;;;;;-147.17;100.00;-15917.19;5043474;28;51826;-51
2023/04/22 05:32:41;;;;;;;;;29.75;28.25;;;;;-147.17;100.00;-15917.19;5045109;28;51096;-52
2023/04/22 05:35:08;;;;;;;;;36.50;34.00;;;;;-147.17;100.00;-15917.19;5045927;28;52860;-53
2023/04/22 05:37:33;;;;;;;;;40.00;36.50;;;;;-147.17;100.00;-15917.19;5023553;28;51028;-52
2023/04/22 05:39:59;;;;;;;;;33.25;32.75;;;;;-147.17;100.00;-15917.19;5003483;28;1151156;-53
2023/04/22 05:42:24;;;;;;;;;36.00;33.50;;;;;-147.17;100.00;-15917.19;5050705;28;51002;-50
2023/04/22 05:44:50;;;;;;;;;37.75;33.75;;;;;-147.17;100.00;-15917.19;5034943;28;51160;-51
2023/04/22 05:47:15;;;;;;;;;33.75;30.75;;;;;-147.17;100.00;-15917.19;5044876;28;51258;-51
2023/04/22 05:49:40;;;;;;;;;28.75;27.25;;;;;-147.17;100.00;-15917.19;5040610;28;52205;-51
2023/04/22 05:52:06;;;;;;;;;38.50;33.50;;;;;-147.17;100.00;-15917.19;5046074;28;51258;-52
2023/04/22 05:54:31;;;;;;;;;35.50;32.75;;;;;-147.17;100.00;-15917.19;5038281;28;50957;-49
2023/04/22 05:56:57;;;;;;;;;32.25;31.25;;;;;-147.17;100.00;-15917.19;5041820;28;51076;-53
2023/04/22 05:59:22;;;;;;;;;36.00;32.75;;;;;-147.17;100.00;-15917.19;5034116;28;52616;-51
2023/04/22 06:01:48;;;;;;;;;30.50;28.25;;;;;-147.17;100.00;-15917.19;5031170;28;51143;-50
2023/04/22 06:04:13;;;;;;;;;37.00;33.25;;;;;-147.17;100.00;-15917.19;5029214;28;51145;-52
2023/04/22 06:06:39;;;;;;;;;33.00;31.00;;;;;-147.17;100.00;-15917.19;5031909;28;51322;-49
2023/04/22 06:09:05;;;;;;;;;37.50;34.00;;;;;-147.17;100.00;-15917.19;5033261;28;51884;-53
2023/04/22 06:11:31;;;;;;;;;38.75;35.25;;;;;-147.17;100.00;-15917.19;5034149;28;51070;-52
2023/04/22 06:13:56;;;;;;;;;40.25;33.50;;;;;-147.17;100.00;-15917.19;5037692;28;51511;-53
2023/04/22 06:16:22;;;;;;;;;38.50;35.75;;;;;-147.17;100.00;-15917.19;5052552;28;51389;-52
2023/04/22 06:18:47;;;;;;;;;36.75;33.50;;;;;-147.17;100.00;-15917.19;5044286;28;51848;-53
2023/04/22 06:21:12;;;;;;;;;38.00;34.00;;;;;-147.17;100.00;-15917.19;5032560;28;51144;-52
2023/04/22 06:23:38;;;;;;;;;43.25;37.00;;;;;-147.17;100.00;-15917.19;5035061;28;56460;-53
2023/04/22 06:26:03;;;;;;;;;40.00;36.25;;;;;-147.17;100.00;-15917.19;5052354;28;51156;-53
2023/04/22 06:28:29;;;;;;;;;34.25;32.75;;;;;-147.17;100.00;-15917.19;5052739;28;52715;-52
2023/04/22 06:30:54;;;;;;;;;38.75;35.50;;;;;-147.17;100.00;-15917.19;5038342;28;51114;-53
2023/04/22 06:33:20;;;;;;;;;37.50;35.25;;;;;-147.17;100.00;-15917.19;5031990;28;51211;-50
2023/04/22 06:35:45;;;;;;;;;42.50;38.00;;;;;-147.17;100.00;-15917.19;5052235;28;50961;-52
2023/04/22 06:38:11;;;;;;;;;46.00;37.25;;;;;-147.17;100.00;-15917.19;5034671;28;53729;-52
2023/04/22 06:40:36;;;;;;;;;44.00;37.00;;;;;-147.17;100.00;-15917.19;5032118;28;51147;-51
2023/04/22 06:43:01;;;;;;;;;25.25;24.50;;;;;-147.17;100.00;-15917.19;5017183;28;51047;-50
2023/04/22 06:45:27;;;;;;;;;33.00;31.50;;;;;-147.17;100.00;-15917.19;5037331;28;51045;-54
2023/04/22 06:47:53;;;;;;;;;39.00;34.50;;;;;-147.17;100.00;-15917.19;5046767;28;52015;-50
2023/04/22 06:50:18;;;;;;;;;39.50;34.50;;;;;-147.17;100.00;-15917.19;5039853;28;51057;-51
2023/04/22 06:52:44;;;;;;;;;33.25;33.00;;;;;-147.17;100.00;-15917.19;5051548;28;51197;-50
2023/04/22 06:55:09;;;;;;;;;39.50;34.25;;;;;-147.17;100.00;-15917.19;5039512;28;51427;-51
2023/04/22 06:57:34;;;;;;;;;33.00;31.00;;;;;-147.17;100.00;-15917.19;5045374;28;50944;-50
2023/04/22 07:00:00;;;;;;;;;36.25;32.75;;;;;-147.17;100.00;-15917.19;5048067;28;51195;-51
2023/04/22 07:02:25;;;;;;;;;41.00;36.75;;;;;-147.17;100.00;-15917.19;5030606;28;51193;-50
2023/04/22 07:04:51;;;;;;;;;34.50;31.50;;;;;-147.17;100.00;-15917.19;5031969;28;50981;-50
2023/04/22 07:07:16;;;;;;;;;37.25;33.00;;;;;-147.17;100.00;-15917.19;5037885;28;51160;-50
2023/04/22 07:09:41;;;;;;;;;38.25;33.75;;;;;-147.17;100.00;-15917.19;5032509;28;51288;-50
2023/04/22 07:12:07;;;;;;;;;41.75;37.00;;;;;-147.17;100.00;-15917.19;5039495;28;51025;-51
2023/04/22 07:14:32;;;;;;;;;32.75;32.25;;;;;-147.17;100.00;-15917.19;5051731;28;51000;-51
2023/04/22 07:16:58;;;;;;;;;38.75;35.75;;;;;-147.17;100.00;-15917.19;5024920;28;51675;-52
2023/04/22 07:19:23;;;;;;;;;33.75;31.50;;;;;-147.17;100.00;-15917.19;5031796;28;51089;-52
2023/04/22 07:21:48;;;;;;;;;36.25;34.75;;;;;-147.17;100.00;-15917.19;5050179;28;51088;-50
2023/04/22 07:24:14;;;;;;;;;38.50;35.00;;;;;-147.17;100.00;-15917.19;5043814;28;51222;-51
2023/04/22 07:26:41;;;;;;;;;44.50;37.50;;;;;-147.17;100.00;-15917.19;5029021;28;52704;-54
2023/04/22 07:29:06;;;;;;;;;30.00;30.00;;;;;-147.17;100.00;-15917.19;5026838;28;51132;-52
2023/04/22 07:31:34;;;;;;;;;40.50;36.25;;;;;-147.17;100.00;-15917.19;5030617;28;51102;-52
2023/04/22 07:33:59;;;;;;;;;40.00;34.25;;;;;-147.17;100.00;-15917.19;5032898;28;51144;-50
2023/04/22 07:36:25;;;;;;;;;41.00;36.25;;;;;-147.17;100.00;-15917.19;5032318;28;52809;-52
2023/04/22 07:38:50;;;;;;;;;29.00;27.00;;;;;-147.17;100.00;-15917.19;5032232;28;51628;-49
2023/04/22 07:41:16;;;;;;;;;40.75;33.50;;;;;-147.17;100.00;-15917.19;5030562;28;51088;-50
2023/04/22 07:43:41;;;;;;;;;38.25;34.00;;;;;-147.17;100.00;-15917.19;5031794;28;51089;-50
2023/04/22 07:46:06;;;;;;;;;35.50;32.75;;;;;-147.17;100.00;-15917.19;5030495;28;51768;-48
2023/04/22 07:48:32;;;;;;;;;38.75;34.75;;;;;-147.17;100.00;-15917.19;5028234;28;51930;-51
2023/04/22 07:50:57;;;;;;;;;39.50;36.00;;;;;-147.17;100.00;-15917.19;5031112;28;53028;-50
2023/04/22 07:53:23;;;;;;;;;37.00;34.75;;;;;-147.17;100.00;-15917.19;5031272;28;51161;-50
2023/04/22 07:55:48;;;;;;;;;37.25;34.25;;;;;-147.17;100.00;-15917.19;5030624;28;51954;-50
2023/04/22 07:58:14;;;;;;;;;34.75;30.50;;;;;-147.17;100.00;-15917.19;5031231;28;51261;-51
2023/04/22 08:00:39;;;;;;;;;36.75;34.50;;;;;-147.17;100.00;-15917.19;5030129;28;51199;-50
2023/04/22 08:03:05;;;;;;;;;36.00;34.00;;;;;-147.17;100.00;-15917.19;5034250;28;51274;-50
2023/04/22 08:05:30;;;;;;;;;38.00;33.50;;;;;-147.17;100.00;-15917.19;5030972;28;52927;-51
2023/04/22 08:07:56;;;;;;;;;30.50;28.50;;;;;-147.17;100.00;-15917.19;5032177;28;51174;-50
2023/04/22 08:10:21;;;;;;;;;28.25;26.75;;;;;-147.17;100.00;-15917.19;5025105;28;51280;-50
2023/04/22 08:12:46;;;;;;;;;36.00;32.50;;;;;-147.17;100.00;-15917.19;5032472;28;51971;-50
2023/04/22 08:15:12;;;;;;;;;35.75;32.75;;;;;-147.17;100.00;-15917.19;5030959;28;51100;-51
2023/04/22 08:17:37;;;;;;;;;32.25;30.00;;;;;-147.17;100.00;-15917.19;5031136;28;52366;-51
2023/04/22 08:20:05;;;;;;;;;28.50;27.75;;;;;-147.17;100.00;-15917.19;5031703;28;51214;-51
2023/04/22 08:22:32;;;;;;;;;31.50;31.25;;;;;-147.17;100.00;-15917.19;5033614;28;52025;-51
2023/04/22 08:24:58;;;;;;;;;30.25;29.00;;;;;-147.17;100.00;-15917.19;5036865;28;52434;-51
2023/04/22 08:27:23;;;;;;;;;35.25;33.50;;;;;-147.17;100.00;-15917.19;5038286;28;51125;-52
2023/04/22 08:29:49;;;;;;;;;32.75;28.75;;;;;-147.17;100.00;-15917.19;5035239;28;51176;-51
2023/04/22 08:32:14;;;;;;;;;28.75;25.50;;;;;-147.17;100.00;-15917.19;5035961;28;52190;-50
2023/04/22 08:34:40;;;;;;;;;33.25;33.00;;;;;-147.17;100.00;-15917.19;5017849;28;51731;-50
2023/04/22 08:37:05;;;;;;;;;28.00;27.00;;;;;-147.17;100.00;-15917.19;5037516;28;52229;-50
2023/04/22 08:39:31;;;;;;;;;31.75;31.25;;;;;-147.17;100.00;-15917.19;5033901;28;51946;-50
2023/04/22 08:41:57;;;;;;;;;35.00;30.25;;;;;-147.17;100.00;-15917.19;5035363;28;51499;-51
2023/04/22 08:44:22;;;;;;;;;26.50;25.75;;;;;-147.17;100.00;-15917.19;5035572;28;51131;-50
2023/04/22 08:46:49;;;;;;;;;27.25;26.25;;;;;-147.17;100.00;-15917.19;5036360;28;52081;-50
2023/04/22 08:49:15;;;;;;;;;23.75;23.00;;;;;-147.17;100.00;-15917.19;5041514;28;51113;-50
2023/04/22 08:51:42;;;;;;;;;41.25;35.75;;;;;-147.17;100.00;-15917.19;5037180;28;51411;-50
2023/04/22 08:54:07;;;;;;;;;37.00;32.50;;;;;-147.17;100.00;-15917.19;5037131;28;51979;-51
2023/04/22 08:56:35;;;;;;;;;41.00;34.75;;;;;-147.17;100.00;-15917.19;5036766;28;51180;-53
2023/04/22 08:59:02;;;;;;;;;35.75;33.75;;;;;-147.17;100.00;-15917.19;5017512;28;52331;-54
2023/04/22 09:01:30;;;;;;;;;30.00;29.75;;;;;-147.17;100.00;-15917.19;5035274;28;51068;-51
2023/04/22 09:03:59;;;;;;;;;32.75;30.50;;;;;-147.17;100.00;-15917.19;5033410;28;51103;-53
2023/04/22 09:06:24;;;;;;;;;33.25;29.50;;;;;-147.17;100.00;-15917.19;5033224;28;51171;-54
2023/04/22 09:08:51;;;;;;;;;22.25;21.25;;;;;-147.17;100.00;-15917.19;5032902;28;51889;-51
2023/04/22 09:11:17;;;;;;;;;29.25;28.25;;;;;-147.17;100.00;-15917.19;5033673;28;51908;-50
2023/04/22 09:13:42;;;;;;;;;31.75;29.50;;;;;-147.17;100.00;-15917.19;5035141;28;53101;-52
2023/04/22 09:16:08;;;;;;;;;25.50;24.75;;;;;-147.17;100.00;-15917.19;5035244;28;51081;-51
2023/04/22 09:18:41;;;;;;;;;30.75;30.75;;;;;-147.17;100.00;-15917.19;5034913;28;52074;-52
2023/04/22 09:21:07;;;;;;;;;27.75;25.50;;;;;-147.17;100.00;-15917.19;5036447;28;52117;-52
2023/04/22 09:23:43;;;;;;;;;24.25;23.50;;;;;-147.17;100.00;-15917.19;5033383;28;52041;-52
2023/04/22 09:26:08;;;;;;;;;27.50;25.75;;;;;-147.17;100.00;-15917.19;5032679;28;51170;-51
2023/04/22 09:28:35;;;;;;;;;28.75;27.00;;;;;-147.17;100.00;-15917.19;5036739;28;51574;-51
2023/04/22 09:31:02;;;;;;;;;28.25;25.75;;;;;-147.17;100.00;-15917.19;5038799;28;51078;-51
2023/04/22 09:33:29;;;;;;;;;28.75;24.25;;;;;-147.17;100.00;-15917.19;5035795;28;52239;-53
2023/04/22 09:35:55;;;;;;;;;27.75;25.50;;;;;-147.17;100.00;-15917.19;5036490;28;51357;-52
2023/04/22 09:38:20;;;;;;;;;23.00;21.75;;;;;-147.17;100.00;-15917.19;5036288;28;52352;-52
2023/04/22 09:40:45;;;;;;;;;22.25;21.50;;;;;-147.17;100.00;-15917.19;5035430;28;52045;-49
2023/04/22 09:43:11;;;;;;;;;23.25;23.25;;;;;-147.17;100.00;-15917.19;5033358;28;52317;-50
2023/04/22 09:45:39;;;;;;;;;27.00;23.50;;;;;-147.17;100.00;-15917.19;5032483;28;51104;-53
2023/04/22 09:48:09;;;;;;;;;23.25;23.00;;;;;-147.17;100.00;-15917.19;5033413;28;51224;-52
2023/04/22 09:50:35;;;;;;;;;21.00;20.75;;;;;-147.17;100.00;-15917.19;5033703;28;51384;-50
2023/04/22 09:53:06;;;;;;;;;25.00;23.75;;;;;-147.17;100.00;-15917.19;5037046;28;53704;-50
2023/04/22 09:55:34;;;;;;;;;17.75;16.75;;;;;-147.17;100.00;-15917.19;5031558;28;52403;-51
2023/04/22 09:58:11;;;;;;;;;15.75;15.25;;;;;-147.17;100.00;-15917.19;5033727;28;52169;-49
2023/04/22 10:00:52;;;;;;;;;17.25;17.25;;;;;-147.17;100.00;-15917.19;5033569;28;51337;-51
2023/04/22 10:03:18;;;;;;;;;16.25;16.00;;;;;-147.17;100.00;-15917.19;5045813;28;51295;-52
2023/04/22 10:05:44;;;;;;;;;15.50;14.25;;;;;-147.17;100.00;-15917.19;5032916;28;51303;-50
2023/04/22 10:08:11;;;;;;;;;17.50;15.75;;;;;-147.17;100.00;-15917.19;5033198;28;51226;-50
2023/04/22 10:10:37;;;;;;;;;17.75;16.50;;;;;-147.17;100.00;-15917.19;5024723;28;51183;-52
2023/04/22 10:13:04;;;;;;;;;16.50;16.00;;;;;-147.17;100.00;-15917.19;5035126;28;51992;-52
2023/04/22 10:15:43;;;;;;;;;22.00;19.50;;;;;-147.17;100.00;-15917.19;5031275;28;51091;-52
2023/04/22 10:18:12;;;;;;;;;17.75;16.00;;;;;-147.17;100.00;-15917.19;5032559;28;51210;-51
2023/04/22 10:20:40;;;;;;;;;18.50;18.50;;;;;-147.17;100.00;-15917.19;5032267;28;51218;-50
2023/04/22 10:23:12;;;;;;;;;19.25;16.75;;;;;-147.17;100.00;-15917.19;5034589;28;51517;-54
2023/04/22 10:25:39;;;;;;;;;18.00;17.00;;;;;-147.17;100.00;-15917.19;5031693;28;51266;-51
2023/04/22 10:28:06;;;;;;;;;17.00;16.00;;;;;-147.17;100.00;-15917.19;5032869;28;50862;-51
2023/04/22 10:30:33;;;;;;;;;16.50;16.50;;;;;-147.17;100.00;-15917.19;5032868;28;50888;-52
2023/04/22 10:33:30;;;;;;;;;20.75;20.75;;;;;-147.17;100.00;-15917.19;5035068;28;51129;-54
2023/04/22 10:36:13;;;;;;;;;30.75;30.25;;;;;-147.17;100.00;-15917.19;5033977;28;51368;-53
2023/04/22 10:38:48;;;;;;;;;22.00;18.75;;;;;-147.17;100.00;-15917.19;5043066;28;51209;-52
2023/04/22 10:41:15;;;;;;;;;23.25;22.00;;;;;-147.17;100.00;-15917.19;5044157;28;51254;-50
2023/04/22 10:43:46;;;;;;;;;23.50;20.25;;;;;-147.17;100.00;-15917.19;5031469;28;51248;-52
2023/04/22 10:46:38;;;;;;;;;18.25;18.00;;;;;-147.17;100.00;-15917.19;5020012;28;51100;-52